sensor_id;sensor_type;location;lat;lon;timestamp;pressure;altitude;pressure_sealevel;temperature;humidity
37238;BME280;23129;49.662;8.448;2023-08-07T00:00:57;100444.75;;;14.26;100.00
37238;BME280;23129;49.662;8.448;2023-08-07T00:03:26;100441.28;;;14.25;100.00
37238;BME280;23129;49.662;8.448;2023-08-07T00:05:56;100445.63;;;14.26;100.00
37238;BME280;23129;49.662;8.448;2023-08-07T00:08:24;100443.78;;;14.28;100.00
37238;BME280;23129;49.662;8.448;2023-08-07T00:10:53;100455.31;;;14.26;100.00
37238;BME280;23129;49.662;8.448;2023-08-07T00:13:21;100441.09;;;14.30;100.00
37238;BME280;23129;49.662;8.448;2023-08-07T00:15:50;100448.91;;;14.31;100.00
37238;BME280;23129;49.662;8.448;2023-08-07T00:18:18;100442.78;;;14.31;100.00
37238;BME280;23129;49.662;8.448;2023-08-07T00:20:47;100437.44;;;14.32;100.00
37238;BME280;23129;49.662;8.448;2023-08-07T00:23:17;100438.31;;;14.33;100.00
37238;BME280;23129;49.662;8.448;2023-08-07T00:25:45;100444.44;;;14.33;100.00
37238;BME280;23129;49.662;8.448;2023-08-07T00:28:13;100448.72;;;14.36;100.00
37238;BME280;23129;49.662;8.448;2023-08-07T00:30:42;100447.78;;;14.37;100.00
37238;BME280;23129;49.662;8.448;2023-08-07T00:33:11;100440.81;;;14.36;100.00
37238;BME280;23129;49.662;8.448;2023-08-07T00:35:39;100440.03;;;14.34;100.00
37238;BME280;23129;49.662;8.448;2023-08-07T00:38:08;100441.66;;;14.36;100.00
37238;BME280;23129;49.662;8.448;2023-08-07T00:40:39;100437.38;;;14.34;100.00
37238;BME280;23129;49.662;8.448;2023-08-07T00:43:07;100442.66;;;14.34;100.00
37238;BME280;23129;49.662;8.448;2023-08-07T00:45:40;100437.38;;;14.34;100.00
37238;BME280;23129;49.662;8.448;2023-08-07T00:48:10;100451.50;;;14.33;100.00
37238;BME280;23129;49.662;8.448;2023-08-07T00:50:40;100441.84;;;14.32;100.00
37238;BME280;23129;49.662;8.448;2023-08-07T00:53:14;100442.66;;;14.34;100.00
37238;BME280;23129;49.662;8.448;2023-08-07T00:55:44;100445.28;;;14.34;100.00
37238;BME280;23129;49.662;8.448;2023-08-07T00:58:13;100442.66;;;14.34;100.00
37238;BME280;23129;49.662;8.448;2023-08-07T01:00:42;100446.22;;;14.33;100.00
37238;BME280;23129;49.662;8.448;2023-08-07T01:03:12;100453.22;;;14.34;100.00
37238;BME280;23129;49.662;8.448;2023-08-07T01:05:41;100450.56;;;14.34;100.00
37238;BME280;23129;49.662;8.448;2023-08-07T01:08:10;100450.63;;;14.32;100.00
37238;BME280;23129;49.662;8.448;2023-08-07T01:10:53;100445.34;;;14.32;100.00
37238;BME280;23129;49.662;8.448;2023-08-07T01:13:33;100447.09;;;14.33;100.00
37238;BME280;23129;49.662;8.448;2023-08-07T01:16:10;100447.94;;;14.34;100.00
37238;BME280;23129;49.662;8.448;2023-08-07T01:18:41;100451.38;;;14.36;100.00
37238;BME280;23129;49.662;8.448;2023-08-07T01:21:17;100454.78;;;14.38;100.00
37238;BME280;23129;49.662;8.448;2023-08-07T01:23:48;100453.88;;;14.39;100.00
37238;BME280;23129;49.662;8.448;2023-08-07T01:26:19;100451.28;;;14.37;100.00
37238;BME280;23129;49.662;8.448;2023-08-07T01:28:54;100454.72;;;14.39;100.00
37238;BME280;23129;49.662;8.448;2023-08-07T01:31:29;100456.53;;;14.39;100.00
37238;BME280;23129;49.662;8.448;2023-08-07T01:34:05;100455.72;;;14.37;100.00
37238;BME280;23129;49.662;8.448;2023-08-07T01:36:34;100447.78;;;14.37;100.00
37238;BME280;23129;49.662;8.448;2023-08-07T01:39:05;100458.34;;;14.37;100.00
37238;BME280;23129;49.662;8.448;2023-08-07T01:41:36;100460.84;;;14.40;100.00
37238;BME280;23129;49.662;8.448;2023-08-07T01:44:05;100460.06;;;14.38;100.00
37238;BME280;23129;49.662;8.448;2023-08-07T01:46:34;100453.88;;;14.39;100.00
37238;BME280;23129;49.662;8.448;2023-08-07T01:49:03;100465.34;;;14.38;100.00
37238;BME280;23129;49.662;8.448;2023-08-07T01:51:31;100465.34;;;14.38;100.00
37238;BME280;23129;49.662;8.448;2023-08-07T01:54:00;100469.72;;;14.39;100.00
37238;BME280;23129;49.662;8.448;2023-08-07T01:56:30;100466.19;;;14.38;100.00
37238;BME280;23129;49.662;8.448;2023-08-07T01:58:59;100460.91;;;14.38;100.00
37238;BME280;23129;49.662;8.448;2023-08-07T02:01:29;100460.06;;;14.38;100.00
37238;BME280;23129;49.662;8.448;2023-08-07T02:03:57;100453.06;;;14.37;100.00
37238;BME280;23129;49.662;8.448;2023-08-07T02:06:26;100459.22;;;14.37;100.00
37238;BME280;23129;49.662;8.448;2023-08-07T02:08:54;100460.84;;;14.40;100.00
37238;BME280;23129;49.662;8.448;2023-08-07T02:11:23;100458.34;;;14.37;100.00
37238;BME280;23129;49.662;8.448;2023-08-07T02:13:53;100455.63;;;14.38;100.00
37238;BME280;23129;49.662;8.448;2023-08-07T02:16:21;100466.19;;;14.38;100.00
37238;BME280;23129;49.662;8.448;2023-08-07T02:18:50;100461.94;;;14.36;100.00
37238;BME280;23129;49.662;8.448;2023-08-07T02:21:19;100470.69;;;14.36;100.00
37238;BME280;23129;49.662;8.448;2023-08-07T02:23:47;100461.13;;;14.34;100.00
37238;BME280;23129;49.662;8.448;2023-08-07T02:26:16;100465.59;;;14.32;100.00
37238;BME280;23129;49.662;8.448;2023-08-07T02:28:44;100465.59;;;14.32;100.00
37238;BME280;23129;49.662;8.448;2023-08-07T02:31:14;100459.59;;;14.28;100.00
37238;BME280;23129;49.662;8.448;2023-08-07T02:33:43;100464.16;;;14.25;100.00
37238;BME280;23129;49.662;8.448;2023-08-07T02:36:11;100467.69;;;14.24;100.00
37238;BME280;23129;49.662;8.448;2023-08-07T02:38:40;100472.97;;;14.24;100.00
37238;BME280;23129;49.662;8.448;2023-08-07T02:41:08;100469.56;;;14.22;100.00
37238;BME280;23129;49.662;8.448;2023-08-07T02:43:37;100478.53;;;14.18;100.00
37238;BME280;23129;49.662;8.448;2023-08-07T02:46:05;100474.19;;;14.16;100.00
37238;BME280;23129;49.662;8.448;2023-08-07T02:48:36;100471.66;;;14.13;100.00
37238;BME280;23129;49.662;8.448;2023-08-07T02:51:04;100471.66;;;14.13;100.00
37238;BME280;23129;49.662;8.448;2023-08-07T02:53:33;100466.53;;;14.10;100.00
37238;BME280;23129;49.662;8.448;2023-08-07T02:56:02;100470.00;;;14.11;100.00
37238;BME280;23129;49.662;8.448;2023-08-07T02:58:30;100470.22;;;14.06;100.00
37238;BME280;23129;49.662;8.448;2023-08-07T03:01:04;100475.75;;;14.00;100.00
37238;BME280;23129;49.662;8.448;2023-08-07T03:03:35;100481.28;;;13.94;100.00
37238;BME280;23129;49.662;8.448;2023-08-07T03:06:04;100469.00;;;13.93;100.00
37238;BME280;23129;49.662;8.448;2023-08-07T03:08:32;100477.00;;;13.91;100.00
37238;BME280;23129;49.662;8.448;2023-08-07T03:11:01;100481.28;;;13.94;100.00
37238;BME280;23129;49.662;8.448;2023-08-07T03:13:29;100491.81;;;13.94;100.00
37238;BME280;23129;49.662;8.448;2023-08-07T03:16:02;100485.63;;;13.95;100.00
37238;BME280;23129;49.662;8.448;2023-08-07T03:18:32;100482.06;;;13.96;100.00
37238;BME280;23129;49.662;8.448;2023-08-07T03:21:03;100494.34;;;13.97;100.00
37238;BME280;23129;49.662;8.448;2023-08-07T03:23:32;100482.84;;;13.98;100.00
37238;BME280;23129;49.662;8.448;2023-08-07T03:26:03;100498.69;;;13.98;100.00
37238;BME280;23129;49.662;8.448;2023-08-07T03:28:37;100488.94;;;14.00;100.00
37238;BME280;23129;49.662;8.448;2023-08-07T03:31:06;100488.00;;;14.01;100.00
37238;BME280;23129;49.662;8.448;2023-08-07T03:33:36;100495.06;;;14.01;100.00
37238;BME280;23129;49.662;8.448;2023-08-07T03:36:06;100482.72;;;14.01;100.00
37238;BME280;23129;49.662;8.448;2023-08-07T03:38:36;100493.28;;;14.01;100.00
37238;BME280;23129;49.662;8.448;2023-08-07T03:41:05;100492.31;;;14.04;100.00
37238;BME280;23129;49.662;8.448;2023-08-07T03:43:34;100490.50;;;14.04;100.00
37238;BME280;23129;49.662;8.448;2023-08-07T03:46:02;100501.88;;;14.06;100.00
37238;BME280;23129;49.662;8.448;2023-08-07T03:48:31;100501.88;;;14.06;100.00
37238;BME280;23129;49.662;8.448;2023-08-07T03:51:06;100500.13;;;14.05;100.00
37238;BME280;23129;49.662;8.448;2023-08-07T03:53:41;100508.97;;;14.04;100.00
37238;BME280;23129;49.662;8.448;2023-08-07T03:56:09;100502.72;;;14.07;100.00
37238;BME280;23129;49.662;8.448;2023-08-07T03:58:38;100519.31;;;14.09;100.00
37238;BME280;23129;49.662;8.448;2023-08-07T04:01:07;100506.13;;;14.09;100.00
37238;BME280;23129;49.662;8.448;2023-08-07T04:03:35;100517.56;;;14.09;100.00
37238;BME280;23129;49.662;8.448;2023-08-07T04:06:06;100514.00;;;14.10;100.00
37238;BME280;23129;49.662;8.448;2023-08-07T04:08:34;100512.28;;;14.09;100.00
37238;BME280;23129;49.662;8.448;2023-08-07T04:11:04;100502.50;;;14.11;100.00
37238;BME280;23129;49.662;8.448;2023-08-07T04:13:35;100503.31;;;14.13;100.00
37238;BME280;23129;49.662;8.448;2023-08-07T04:16:04;100503.31;;;14.13;100.00
37238;BME280;23129;49.662;8.448;2023-08-07T04:18:33;100499.75;;;14.14;100.00
37238;BME280;23129;49.662;8.448;2023-08-07T04:21:03;100505.84;;;14.16;100.00
37238;BME280;23129;49.662;8.448;2023-08-07T04:23:33;100508.47;;;14.16;100.00
37238;BME280;23129;49.662;8.448;2023-08-07T04:26:02;100524.28;;;14.16;100.00
37238;BME280;23129;49.662;8.448;2023-08-07T04:28:30;100512.03;;;14.15;100.00
37238;BME280;23129;49.662;8.448;2023-08-07T04:30:59;100517.31;;;14.15;100.00
37238;BME280;23129;49.662;8.448;2023-08-07T04:33:29;100519.03;;;14.16;100.00
37238;BME280;23129;49.662;8.448;2023-08-07T04:35:57;100519.75;;;14.20;100.00
37238;BME280;23129;49.662;8.448;2023-08-07T04:38:26;100520.59;;;14.21;100.00
37238;BME280;23129;49.662;8.448;2023-08-07T04:40:56;100514.47;;;14.20;100.00
37238;BME280;23129;49.662;8.448;2023-08-07T04:43:24;100516.13;;;14.23;100.00
37238;BME280;23129;49.662;8.448;2023-08-07T04:45:54;100525.75;;;14.24;100.00
37238;BME280;23129;49.662;8.448;2023-08-07T04:48:22;100537.19;;;14.24;100.00
37238;BME280;23129;49.662;8.448;2023-08-07T04:50:52;100537.09;;;14.26;100.00
37238;BME280;23129;49.662;8.448;2023-08-07T04:53:20;100542.38;;;14.26;100.00
37238;BME280;23129;49.662;8.448;2023-08-07T04:55:49;100540.69;;;14.25;100.00
37238;BME280;23129;49.662;8.448;2023-08-07T04:58:19;100536.16;;;14.27;100.00
37238;BME280;23129;49.662;8.448;2023-08-07T05:00:47;100535.28;;;14.28;100.00
37238;BME280;23129;49.662;8.448;2023-08-07T05:03:16;100532.63;;;14.28;100.00
37238;BME280;23129;49.662;8.448;2023-08-07T05:05:46;100534.34;;;14.29;100.00
37238;BME280;23129;49.662;8.448;2023-08-07T05:08:14;100537.06;;;14.27;100.00
37238;BME280;23129;49.662;8.448;2023-08-07T05:10:42;100534.34;;;14.29;100.00
37238;BME280;23129;49.662;8.448;2023-08-07T05:13:11;100548.47;;;14.28;100.00
37238;BME280;23129;49.662;8.448;2023-08-07T05:15:41;100547.47;;;14.30;100.00
37238;BME280;23129;49.662;8.448;2023-08-07T05:18:10;100538.72;;;14.30;100.00
37238;BME280;23129;49.662;8.448;2023-08-07T05:20:38;100539.47;;;14.32;100.00
37238;BME280;23129;49.662;8.448;2023-08-07T05:23:07;100538.50;;;14.34;100.00
37238;BME280;23129;49.662;8.448;2023-08-07T05:25:36;100545.34;;;14.38;100.00
37238;BME280;23129;49.662;8.448;2023-08-07T05:28:04;100540.06;;;14.38;100.00
37238;BME280;23129;49.662;8.448;2023-08-07T05:30:33;100547.88;;;14.42;100.00
37238;BME280;23129;49.662;8.448;2023-08-07T05:33:03;100560.16;;;14.43;100.00
37238;BME280;23129;49.662;8.448;2023-08-07T05:35:31;100552.13;;;14.46;100.00
37238;BME280;23129;49.662;8.448;2023-08-07T05:38:00;100551.13;;;14.48;100.00
37238;BME280;23129;49.662;8.448;2023-08-07T05:40:29;100560.66;;;14.52;100.00
37238;BME280;23129;49.662;8.448;2023-08-07T05:42:58;100563.25;;;14.54;100.00
37238;BME280;23129;49.662;8.448;2023-08-07T05:45:27;100564.88;;;14.56;100.00
37238;BME280;23129;49.662;8.448;2023-08-07T05:47:55;100570.00;;;14.59;100.00
37238;BME280;23129;49.662;8.448;2023-08-07T05:50:25;100572.75;;;14.58;100.00
37238;BME280;23129;49.662;8.448;2023-08-07T05:52:54;100575.28;;;14.59;100.00
37238;BME280;23129;49.662;8.448;2023-08-07T05:55:22;100571.75;;;14.60;100.00
37238;BME280;23129;49.662;8.448;2023-08-07T05:57:51;100574.31;;;14.62;100.00
37238;BME280;23129;49.662;8.448;2023-08-07T06:00:20;100572.47;;;14.64;100.00
37238;BME280;23129;49.662;8.448;2023-08-07T06:02:48;100580.31;;;14.66;100.00
37238;BME280;23129;49.662;8.448;2023-08-07T06:05:17;100578.47;;;14.68;100.00
37238;BME280;23129;49.662;8.448;2023-08-07T06:07:47;100579.31;;;14.68;100.00
37238;BME280;23129;49.662;8.448;2023-08-07T06:10:16;100585.47;;;14.69;100.00
37238;BME280;23129;49.662;8.448;2023-08-07T06:12:44;100585.47;;;14.69;100.00
37238;BME280;23129;49.662;8.448;2023-08-07T06:15:13;100595.16;;;14.68;100.00
37238;BME280;23129;49.662;8.448;2023-08-07T06:17:41;100587.25;;;14.68;100.00
37238;BME280;23129;49.662;8.448;2023-08-07T06:20:10;100597.75;;;14.70;100.00
37238;BME280;23129;49.662;8.448;2023-08-07T06:22:41;100588.91;;;14.71;100.00
37238;BME280;23129;49.662;8.448;2023-08-07T06:25:11;100594.19;;;14.71;100.00
37238;BME280;23129;49.662;8.448;2023-08-07T06:27:39;100600.31;;;14.71;100.00
37238;BME280;23129;49.662;8.448;2023-08-07T06:30:09;100605.59;;;14.71;100.00
37238;BME280;23129;49.662;8.448;2023-08-07T06:32:38;100607.38;;;14.71;100.00
37238;BME280;23129;49.662;8.448;2023-08-07T06:35:07;100603.75;;;14.73;100.00
37238;BME280;23129;49.662;8.448;2023-08-07T06:37:36;100611.75;;;14.72;100.00
37238;BME280;23129;49.662;8.448;2023-08-07T06:40:05;100612.41;;;14.77;100.00
37238;BME280;23129;49.662;8.448;2023-08-07T06:42:35;100618.53;;;14.77;100.00
37238;BME280;23129;49.662;8.448;2023-08-07T06:45:05;100614.19;;;14.76;100.00
37238;BME280;23129;49.662;8.448;2023-08-07T06:47:34;100617.63;;;14.78;100.00
37238;BME280;23129;49.662;8.448;2023-08-07T06:50:02;100619.34;;;14.79;100.00
37238;BME280;23129;49.662;8.448;2023-08-07T06:52:31;100627.25;;;14.79;100.00
37238;BME280;23129;49.662;8.448;2023-08-07T06:54:59;100629.84;;;14.81;100.00
37238;BME280;23129;49.662;8.448;2023-08-07T06:57:28;100616.66;;;14.81;100.00
37238;BME280;23129;49.662;8.448;2023-08-07T06:59:58;100626.28;;;14.82;100.00
37238;BME280;23129;49.662;8.448;2023-08-07T07:02:27;100632.88;;;14.72;100.00
37238;BME280;23129;49.662;8.448;2023-08-07T07:04:56;100637.66;;;14.62;100.00
37238;BME280;23129;49.662;8.448;2023-08-07T07:07:24;100631.78;;;14.55;100.00
37238;BME280;23129;49.662;8.448;2023-08-07T07:09:53;100633.63;;;14.53;100.00
37238;BME280;23129;49.662;8.448;2023-08-07T07:12:22;100637.06;;;14.55;100.00
37238;BME280;23129;49.662;8.448;2023-08-07T07:14:50;100652.91;;;14.55;100.00
37238;BME280;23129;49.662;8.448;2023-08-07T07:17:20;100649.34;;;14.56;100.00
37238;BME280;23129;49.662;8.448;2023-08-07T07:19:49;100647.50;;;14.58;100.00
37238;BME280;23129;49.662;8.448;2023-08-07T07:22:18;100646.53;;;14.61;100.00
37238;BME280;23129;49.662;8.448;2023-08-07T07:24:47;100657.81;;;14.65;100.00
37238;BME280;23129;49.662;8.448;2023-08-07T07:27:15;100661.25;;;14.67;100.00
37238;BME280;23129;49.662;8.448;2023-08-07T07:29:44;100667.31;;;14.69;100.00
37238;BME280;23129;49.662;8.448;2023-08-07T07:32:12;100663.81;;;14.68;100.00
37238;BME280;23129;49.662;8.448;2023-08-07T07:34:42;100666.53;;;14.67;100.00
37238;BME280;23129;49.662;8.448;2023-08-07T07:37:11;100674.47;;;14.67;100.00
37238;BME280;23129;49.662;8.448;2023-08-07T07:39:41;100678.81;;;14.68;100.00
37238;BME280;23129;49.662;8.448;2023-08-07T07:42:10;100674.38;;;14.68;100.00
37238;BME280;23129;49.662;8.448;2023-08-07T07:44:38;100676.28;;;14.65;100.00
37238;BME280;23129;49.662;8.448;2023-08-07T07:47:07;100678.31;;;14.58;100.00
37238;BME280;23129;49.662;8.448;2023-08-07T07:49:43;100681.13;;;14.53;100.00
37238;BME280;23129;49.662;8.448;2023-08-07T07:52:12;100693.56;;;14.51;100.00
37238;BME280;23129;49.662;8.448;2023-08-07T07:54:41;100684.81;;;14.49;100.00
37238;BME280;23129;49.662;8.448;2023-08-07T07:57:10;100691.88;;;14.49;100.00
37238;BME280;23129;49.662;8.448;2023-08-07T07:59:38;100684.13;;;14.44;100.00
37238;BME280;23129;49.662;8.448;2023-08-07T08:02:07;100684.38;;;14.38;100.00
37238;BME280;23129;49.662;8.448;2023-08-07T08:04:36;100682.59;;;14.38;100.00
37238;BME280;23129;49.662;8.448;2023-08-07T08:07:07;100696.59;;;14.41;100.00
37238;BME280;23129;49.662;8.448;2023-08-07T08:09:36;100686.72;;;14.46;100.00
37238;BME280;23129;49.662;8.448;2023-08-07T08:12:05;100691.69;;;14.53;100.00
37238;BME280;23129;49.662;8.448;2023-08-07T08:14:34;100697.53;;;14.61;100.00
37238;BME280;23129;49.662;8.448;2023-08-07T08:17:22;100701.53;;;14.72;100.00
37238;BME280;23129;49.662;8.448;2023-08-07T08:19:50;100713.44;;;14.82;100.00
37238;BME280;23129;49.662;8.448;2023-08-07T08:22:20;100704.31;;;14.89;100.00
37238;BME280;23129;49.662;8.448;2023-08-07T08:24:49;100715.38;;;14.99;100.00
37238;BME280;23129;49.662;8.448;2023-08-07T08:27:17;100715.97;;;15.05;100.00
37238;BME280;23129;49.662;8.448;2023-08-07T08:29:46;100715.72;;;15.12;100.00
37238;BME280;23129;49.662;8.448;2023-08-07T08:32:15;100723.31;;;15.19;100.00
37238;BME280;23129;49.662;8.448;2023-08-07T08:34:43;100722.31;;;15.22;100.00
37238;BME280;23129;49.662;8.448;2023-08-07T08:37:13;100730.91;;;15.27;100.00
37238;BME280;23129;49.662;8.448;2023-08-07T08:39:43;100732.50;;;15.31;100.00
37238;BME280;23129;49.662;8.448;2023-08-07T08:42:12;100733.28;;;15.33;100.00
37238;BME280;23129;49.662;8.448;2023-08-07T08:44:41;100739.25;;;15.38;100.00
37238;BME280;23129;49.662;8.448;2023-08-07T08:47:15;100732.84;;;15.44;100.00
37238;BME280;23129;49.662;8.448;2023-08-07T08:49:47;100742.25;;;15.49;100.00
37238;BME280;23129;49.662;8.448;2023-08-07T08:52:18;100743.88;;;15.53;100.00
37238;BME280;23129;49.662;8.448;2023-08-07T08:54:48;100746.56;;;15.52;100.00
37238;BME280;23129;49.662;8.448;2023-08-07T08:57:17;100746.13;;;15.42;100.00
37238;BME280;23129;49.662;8.448;2023-08-07T08:59:47;100755.63;;;15.26;100.00
37238;BME280;23129;49.662;8.448;2023-08-07T09:02:16;100752.97;;;15.05;100.00
37238;BME280;23129;49.662;8.448;2023-08-07T09:04:45;100751.97;;;14.86;100.00
37238;BME280;23129;49.662;8.448;2023-08-07T09:07:16;100762.44;;;14.67;100.00
37238;BME280;23129;49.662;8.448;2023-08-07T09:09:44;100758.72;;;14.49;100.00
37238;BME280;23129;49.662;8.448;2023-08-07T09:12:19;100764.34;;;14.40;100.00
37238;BME280;23129;49.662;8.448;2023-08-07T09:14:52;100762.88;;;14.33;100.00
37238;BME280;23129;49.662;8.448;2023-08-07T09:17:24;100757.13;;;14.22;100.00
37238;BME280;23129;49.662;8.448;2023-08-07T09:19:55;100760.91;;;14.14;100.00
37238;BME280;23129;49.662;8.448;2023-08-07T09:22:24;100767.13;;;14.13;100.00
37238;BME280;23129;49.662;8.448;2023-08-07T09:24:53;100767.94;;;14.15;100.00
37238;BME280;23129;49.662;8.448;2023-08-07T09:27:22;100760.75;;;14.19;100.00
37238;BME280;23129;49.662;8.448;2023-08-07T09:29:51;100764.09;;;14.24;100.00
37238;BME280;23129;49.662;8.448;2023-08-07T09:32:22;100771.81;;;14.29;100.00
37238;BME280;23129;49.662;8.448;2023-08-07T09:34:52;100775.13;;;14.34;100.00
37238;BME280;23129;49.662;8.448;2023-08-07T09:37:20;100773.31;;;14.36;100.00
37238;BME280;23129;49.662;8.448;2023-08-07T09:39:49;100778.72;;;14.33;100.00
37238;BME280;23129;49.662;8.448;2023-08-07T09:42:19;100786.03;;;14.25;100.00
37238;BME280;23129;49.662;8.448;2023-08-07T09:44:49;100789.69;;;14.21;100.00
37238;BME280;23129;49.662;8.448;2023-08-07T09:47:19;100796.81;;;14.19;100.00
37238;BME280;23129;49.662;8.448;2023-08-07T09:49:48;100796.19;;;14.12;100.00
37238;BME280;23129;49.662;8.448;2023-08-07T09:52:22;100792.88;;;14.07;100.00
37238;BME280;23129;49.662;8.448;2023-08-07T09:54:56;100798.06;;;14.08;100.00
37238;BME280;23129;49.662;8.448;2023-08-07T09:57:25;100805.88;;;14.11;100.00
37238;BME280;23129;49.662;8.448;2023-08-07T09:59:55;100802.44;;;14.09;100.00
37238;BME280;23129;49.662;8.448;2023-08-07T10:02:24;100806.09;;;14.05;100.00
37238;BME280;23129;49.662;8.448;2023-08-07T10:04:53;100809.66;;;14.04;100.00
37238;BME280;23129;49.662;8.448;2023-08-07T10:07:22;100808.06;;;14.00;100.00
37238;BME280;23129;49.662;8.448;2023-08-07T10:09:51;100814.41;;;13.95;100.00
37238;BME280;23129;49.662;8.448;2023-08-07T10:12:20;100820.75;;;13.89;100.00
37238;BME280;23129;49.662;8.448;2023-08-07T10:14:49;100817.41;;;13.84;100.00
37238;BME280;23129;49.662;8.448;2023-08-07T10:17:21;100823.88;;;13.75;100.00
37238;BME280;23129;49.662;8.448;2023-08-07T10:19:51;100828.59;;;13.65;100.00
37238;BME280;23129;49.662;8.448;2023-08-07T10:22:20;100833.34;;;13.56;100.00
37238;BME280;23129;49.662;8.448;2023-08-07T10:24:53;100829.97;;;13.52;100.00
37238;BME280;23129;49.662;8.448;2023-08-07T10:27:26;100828.19;;;13.53;100.00
37238;BME280;23129;49.662;8.448;2023-08-07T10:29:57;100843.03;;;13.55;100.00
37238;BME280;23129;49.662;8.448;2023-08-07T10:32:29;100841.28;;;13.54;100.00
37238;BME280;23129;49.662;8.448;2023-08-07T10:34:58;100841.38;;;13.51;100.00
37238;BME280;23129;49.662;8.448;2023-08-07T10:37:38;100843.31;;;13.46;100.00
37238;BME280;23129;49.662;8.448;2023-08-07T10:40:08;100846.97;;;13.42;100.00
37238;BME280;23129;49.662;8.448;2023-08-07T10:42:58;100843.41;;;13.43;100.00
37238;BME280;23129;49.662;8.448;2023-08-07T10:45:27;100841.91;;;13.36;100.00
37238;BME280;23129;49.662;8.448;2023-08-07T10:48:06;100847.19;;;13.36;100.00
37238;BME280;23129;49.662;8.448;2023-08-07T10:50:51;100847.06;;;13.39;100.00
37238;BME280;23129;49.662;8.448;2023-08-07T10:53:29;100847.06;;;13.39;100.00
37238;BME280;23129;49.662;8.448;2023-08-07T10:56:01;100845.19;;;13.42;100.00
37238;BME280;23129;49.662;8.448;2023-08-07T10:58:33;100842.53;;;13.44;100.00
37238;BME280;23129;49.662;8.448;2023-08-07T11:01:21;100836.28;;;13.46;100.00
37238;BME280;23129;49.662;8.448;2023-08-07T11:03:53;100844.13;;;13.48;100.00
37238;BME280;23129;49.662;8.448;2023-08-07T11:06:24;100843.03;;;13.55;100.00
37238;BME280;23129;49.662;8.448;2023-08-07T11:08:54;100841.94;;;13.61;100.00
37238;BME280;23129;49.662;8.448;2023-08-07T11:11:23;100840.75;;;13.69;100.00
37238;BME280;23129;49.662;8.448;2023-08-07T11:13:52;100842.19;;;13.80;100.00
37238;BME280;23129;49.662;8.448;2023-08-07T11:16:20;100840.91;;;13.91;100.00
37238;BME280;23129;49.662;8.448;2023-08-07T11:18:51;100836.06;;;14.03;100.00
37238;BME280;23129;49.662;8.448;2023-08-07T11:21:20;100845.28;;;14.16;100.00
37238;BME280;23129;49.662;8.448;2023-08-07T11:23:48;100844.78;;;14.30;100.00
37238;BME280;23129;49.662;8.448;2023-08-07T11:26:17;100838.97;;;14.44;100.00
37238;BME280;23129;49.662;8.448;2023-08-07T11:28:49;100836.75;;;14.56;100.00
37238;BME280;23129;49.662;8.448;2023-08-07T11:31:17;100828.38;;;14.69;100.00
37238;BME280;23129;49.662;8.448;2023-08-07T11:33:46;100830.69;;;14.78;100.00
37238;BME280;23129;49.662;8.448;2023-08-07T11:36:19;100831.34;;;14.83;100.00
37238;BME280;23129;49.662;8.448;2023-08-07T11:38:48;100830.25;;;14.89;100.00
37238;BME280;23129;49.662;8.448;2023-08-07T11:41:17;100827.19;;;14.99;100.00
37238;BME280;23129;49.662;8.448;2023-08-07T11:43:47;100812.13;;;15.23;100.00
37238;BME280;23129;49.662;8.448;2023-08-07T11:46:16;100817.63;;;15.60;100.00
37238;BME280;23129;49.662;8.448;2023-08-07T11:48:44;100819.91;;;15.89;100.00
37238;BME280;23129;49.662;8.448;2023-08-07T11:51:13;100815.06;;;15.99;100.00
37238;BME280;23129;49.662;8.448;2023-08-07T11:53:43;100821.22;;;16.00;100.00
37238;BME280;23129;49.662;8.448;2023-08-07T11:56:13;100813.28;;;16.00;100.00
37238;BME280;23129;49.662;8.448;2023-08-07T11:58:44;100811.72;;;15.95;100.00
37238;BME280;23129;49.662;8.448;2023-08-07T12:01:15;100806.47;;;15.94;100.00
37238;BME280;23129;49.662;8.448;2023-08-07T12:03:52;100804.63;;;15.96;100.00
37238;BME280;23129;49.662;8.448;2023-08-07T12:06:22;100809.59;;;16.04;100.00
37238;BME280;23129;49.662;8.448;2023-08-07T12:08:54;100815.38;;;16.12;100.00
37238;BME280;23129;49.662;8.448;2023-08-07T12:11:24;100807.91;;;16.22;100.00
37238;BME280;23129;49.662;8.448;2023-08-07T12:13:52;100806.59;;;16.30;100.00
37238;BME280;23129;49.662;8.448;2023-08-07T12:16:21;100810.59;;;16.39;100.00
37238;BME280;23129;49.662;8.448;2023-08-07T12:18:51;100808.41;;;16.49;100.00
37238;BME280;23129;49.662;8.448;2023-08-07T12:21:21;100807.03;;;16.59;100.00
37238;BME280;23129;49.662;8.448;2023-08-07T12:23:55;100806.75;;;16.65;100.00
37238;BME280;23129;49.662;8.448;2023-08-07T12:26:24;100808.13;;;16.74;100.00
37238;BME280;23129;49.662;8.448;2023-08-07T12:28:53;100812.16;;;16.82;100.00
37238;BME280;23129;49.662;8.448;2023-08-07T12:31:21;100803.81;;;16.90;100.00
37238;BME280;23129;49.662;8.448;2023-08-07T12:33:50;100810.59;;;16.96;100.00
37238;BME280;23129;49.662;8.448;2023-08-07T12:36:20;100805.66;;;17.07;100.00
37238;BME280;23129;49.662;8.448;2023-08-07T12:38:49;100807.09;;;17.14;100.00
37238;BME280;23129;49.662;8.448;2023-08-07T12:41:19;100808.34;;;17.24;100.00
37238;BME280;23129;49.662;8.448;2023-08-07T12:43:50;100807.03;;;17.33;100.00
37238;BME280;23129;49.662;8.448;2023-08-07T12:46:19;100803.75;;;17.45;100.00
37238;BME280;23129;49.662;8.448;2023-08-07T12:48:51;100802.97;;;17.61;100.00
37238;BME280;23129;49.662;8.448;2023-08-07T12:51:19;100806.56;;;17.77;100.00
37238;BME280;23129;49.662;8.448;2023-08-07T12:53:49;100800.53;;;17.91;100.00